createdAt,value
2023-12-18T00:15:20.026Z,102614.47
2023-12-18T01:06:09.308Z,102589.03
2023-12-18T01:26:35.721Z,102557.19
2023-12-18T02:18:14.122Z,102561.28
2023-12-18T05:56:26.320Z,102515.34
2023-12-18T06:51:21.311Z,102519.34
2023-12-18T07:08:08.056Z,102519.56
2023-12-18T07:10:35.839Z,102510.03
2023-12-18T07:13:03.802Z,102518.00
2023-12-18T07:15:31.732Z,102518.91
2023-12-18T07:17:59.769Z,102533.94
2023-12-18T07:20:27.906Z,102531.72
2023-12-18T07:22:55.732Z,102526.69
2023-12-18T07:25:24.896Z,102520.59
2023-12-18T07:27:52.718Z,102509.34
2023-12-18T07:30:21.726Z,102492.09
2023-12-18T07:32:49.868Z,102500.16
2023-12-18T07:35:17.968Z,102505.13
2023-12-18T07:37:45.788Z,102503.97
2023-12-18T07:40:13.752Z,102501.50
2023-12-18T07:42:43.112Z,102497.13
2023-12-18T07:45:11.838Z,102494.63
2023-12-18T07:47:40.624Z,102502.50
2023-12-18T07:50:09.890Z,102501.41
2023-12-18T07:52:37.842Z,102493.25
2023-12-18T07:55:06.457Z,102493.38
2023-12-18T07:57:34.236Z,102493.16
2023-12-18T08:00:04.724Z,102500.78
2023-12-18T08:02:32.477Z,102508.41
2023-12-18T08:05:00.431Z,102517.91
2023-12-18T08:07:28.332Z,102522.72
2023-12-18T08:09:56.111Z,102512.13
2023-12-18T08:12:23.834Z,102505.03
2023-12-18T08:14:51.660Z,102507.88
2023-12-18T08:17:20.806Z,102513.22
2023-12-18T08:19:51.235Z,102515.41
2023-12-18T08:22:19.024Z,102522.00
2023-12-18T08:24:46.955Z,102524.28
2023-12-18T08:27:15.875Z,102525.97
2023-12-18T08:29:43.672Z,102520.72
2023-12-18T08:32:11.438Z,102509.13
2023-12-18T08:34:40.680Z,102508.31
2023-12-18T08:37:08.540Z,102512.97
2023-12-18T08:39:36.334Z,102507.47
2023-12-18T08:42:04.399Z,102504.19
2023-12-18T08:44:32.181Z,102511.41
2023-12-18T08:47:00.120Z,102506.34
2023-12-18T08:49:27.963Z,102512.78
2023-12-18T08:51:57.161Z,102514.06
2023-12-18T08:54:24.952Z,102504.69
2023-12-18T08:56:53.107Z,102508.94
2023-12-18T08:59:22.539Z,102502.16
2023-12-18T09:01:50.869Z,102494.28
2023-12-18T09:04:18.679Z,102488.66
2023-12-18T09:06:46.809Z,102493.69
2023-12-18T09:09:16.352Z,102504.09
2023-12-18T09:11:44.233Z,102496.16
2023-12-18T09:14:12.671Z,102486.25
2023-12-18T09:16:41.177Z,102479.22
2023-12-18T09:19:09.562Z,102472.16
2023-12-18T09:21:37.658Z,102478.31
2023-12-18T09:24:06.257Z,102476.25
2023-12-18T09:26:35.493Z,102476.47
2023-12-18T09:29:03.982Z,102480.50
2023-12-18T09:31:32.723Z,102475.84
2023-12-18T09:34:00.866Z,102479.78
2023-12-18T09:36:28.768Z,102493.31
2023-12-18T09:38:56.577Z,102485.69
2023-12-18T09:41:24.995Z,102485.75
2023-12-18T09:43:55.349Z,102489.19
2023-12-18T09:46:24.613Z,102484.53
2023-12-18T09:48:52.583Z,102478.66
2023-12-18T09:51:22.907Z,102472.88
2023-12-18T09:53:53.000Z,102467.56
2023-12-18T09:56:22.517Z,102470.66
2023-12-18T09:58:50.909Z,102469.31
2023-12-18T10:01:20.187Z,102471.84
2023-12-18T10:03:48.140Z,102469.88
2023-12-18T10:06:18.583Z,102474.91
2023-12-18T10:08:46.905Z,102470.50
2023-12-18T10:11:26.846Z,102470.72
2023-12-18T10:13:56.502Z,102477.44
2023-12-18T10:16:25.837Z,102474.53
2023-12-18T10:18:54.165Z,102479.41
2023-12-18T10:21:24.105Z,102474.81
2023-12-18T10:23:53.317Z,102474.16
2023-12-18T10:26:21.144Z,102472.56
2023-12-18T10:28:51.509Z,102472.19
2023-12-18T10:31:19.780Z,102472.34
2023-12-18T10:33:49.227Z,102468.03
2023-12-18T10:36:18.183Z,102458.59
2023-12-18T10:38:50.609Z,102460.50
2023-12-18T10:41:21.781Z,102451.38
2023-12-18T10:43:51.426Z,102438.03
2023-12-18T10:46:19.269Z,102444.44
2023-12-18T10:48:51.330Z,102435.34
2023-12-18T10:51:21.610Z,102426.72
2023-12-18T10:53:50.562Z,102422.19
2023-12-18T10:56:22.485Z,102425.09
2023-12-18T10:58:52.646Z,102427.66
2023-12-18T11:01:21.689Z,102417.84
2023-12-18T11:03:52.555Z,102422.13
2023-12-18T11:06:20.920Z,102416.84
2023-12-18T11:08:49.286Z,102418.53
2023-12-18T11:11:18.728Z,102416.13
2023-12-18T11:14:02.595Z,102406.09
2023-12-18T11:16:45.455Z,102406.81
2023-12-18T11:19:27.221Z,102402.69
2023-12-18T11:21:55.731Z,102393.47
2023-12-18T11:24:23.618Z,102389.94
2023-12-18T11:26:52.991Z,102385.09
2023-12-18T11:29:35.185Z,102385.81
2023-12-18T11:32:04.647Z,102379.63
2023-12-18T11:34:34.629Z,102375.56
2023-12-18T11:37:02.484Z,102380.69
2023-12-18T11:39:38.573Z,102377.19
2023-12-18T11:42:08.505Z,102377.19
2023-12-18T11:44:37.773Z,102374.91
2023-12-18T11:47:05.896Z,102370.47
2023-12-18T11:49:35.247Z,102371.59
2023-12-18T11:52:18.610Z,102366.63
2023-12-18T11:54:46.453Z,102361.22
2023-12-18T11:57:17.870Z,102352.28
2023-12-18T11:59:46.127Z,102343.13
2023-12-18T12:02:15.313Z,102342.72
2023-12-18T12:04:45.273Z,102342.22
2023-12-18T12:07:14.279Z,102330.94
2023-12-18T12:09:44.873Z,102342.22
2023-12-18T12:12:15.472Z,102326.06
2023-12-18T12:14:43.334Z,102330.69
2023-12-18T12:17:11.154Z,102331.81
2023-12-18T12:19:39.096Z,102318.59
2023-12-18T12:22:08.328Z,102319.72
2023-12-18T12:24:41.971Z,102318.44
2023-12-18T12:27:09.966Z,102308.25
2023-12-18T12:29:38.245Z,102306.28
2023-12-18T12:32:13.640Z,102303.44
2023-12-18T12:34:42.797Z,102306.25
2023-12-18T12:37:13.606Z,102304.50
2023-12-18T12:39:58.842Z,102301.72
2023-12-18T12:42:27.220Z,102304.72
2023-12-18T12:44:55.477Z,102294.56
2023-12-18T12:47:23.374Z,102295.03
2023-12-18T12:49:51.314Z,102297.94
2023-12-18T12:52:20.600Z,102290.47
2023-12-18T12:54:49.141Z,102285.72
2023-12-18T12:57:17.829Z,102283.94
2023-12-18T12:59:53.090Z,102269.75
2023-12-18T13:02:21.552Z,102266.91
2023-12-18T13:04:50.390Z,102265.72
2023-12-18T13:07:21.276Z,102261.53
2023-12-18T13:09:49.467Z,102262.25
2023-12-18T13:12:18.018Z,102257.69
2023-12-18T13:14:46.152Z,102259.53
2023-12-18T13:17:14.325Z,102259.53
2023-12-18T13:19:42.503Z,102247.44
2023-12-18T13:22:10.499Z,102247.44
2023-12-18T13:24:39.804Z,102234.19
2023-12-18T13:27:07.847Z,102229.66
2023-12-18T13:29:36.290Z,102227.16
2023-12-18T13:32:05.158Z,102231.25
2023-12-18T13:34:34.128Z,102226.38
2023-12-18T13:37:02.641Z,102225.16
2023-12-18T13:39:30.829Z,102206.06
2023-12-18T13:42:01.131Z,102210.34
2023-12-18T13:44:30.023Z,102214.16
2023-12-18T13:46:57.832Z,102205.69
2023-12-18T13:49:25.778Z,102207.25
2023-12-18T13:51:54.637Z,102219.09
2023-12-18T13:54:23.112Z,102214.16
2023-12-18T13:56:51.051Z,102216.47
2023-12-18T13:59:20.114Z,102210.25
2023-12-18T14:01:47.917Z,102200.56
2023-12-18T14:04:15.758Z,102205.50
2023-12-18T14:06:43.700Z,102206.34
2023-12-18T14:09:11.678Z,102203.47
2023-12-18T14:11:39.461Z,102196.41
2023-12-18T14:14:09.690Z,102200.75
2023-12-18T14:16:39.293Z,102197.19
2023-12-18T14:19:07.146Z,102194.34
2023-12-18T14:21:34.978Z,102197.91
2023-12-18T14:24:02.779Z,102198.66
2023-12-18T14:26:31.280Z,102200.28
2023-12-18T14:29:00.040Z,102198.56
2023-12-18T14:31:27.993Z,102205.72
2023-12-18T14:33:57.232Z,102194.22
2023-12-18T14:36:25.181Z,102197.03
2023-12-18T14:38:54.244Z,102196.25
2023-12-18T14:41:22.319Z,102194.63
2023-12-18T14:43:50.055Z,102188.69
2023-12-18T14:46:17.958Z,102182.72
2023-12-18T14:48:46.124Z,102178.28
2023-12-18T14:51:15.356Z,102186.91
2023-12-18T14:53:43.152Z,102185.13
2023-12-18T14:56:11.063Z,102181.72
2023-12-18T14:58:38.930Z,102186.19
2023-12-18T15:01:06.943Z,102185.59
2023-12-18T15:03:35.063Z,102178.94
2023-12-18T15:06:02.970Z,102180.97
2023-12-18T15:08:33.956Z,102176.88
2023-12-18T15:11:01.736Z,102175.56
2023-12-18T15:13:29.517Z,102176.72
2023-12-18T15:15:57.399Z,102177.88
2023-12-18T15:18:25.327Z,102167.69
2023-12-18T15:20:53.139Z,102173.22
2023-12-18T15:23:20.894Z,102168.22
2023-12-18T15:25:50.095Z,102162.41
2023-12-18T15:28:18.075Z,102165.16
2023-12-18T15:30:45.991Z,102163.44
2023-12-18T15:33:17.858Z,102171.06
2023-12-18T15:35:46.442Z,102172.94
2023-12-18T15:38:14.186Z,102174.91
2023-12-18T15:40:41.998Z,102168.09
2023-12-18T15:43:11.643Z,102164.50
2023-12-18T15:45:39.521Z,102174.75
2023-12-18T15:48:08.120Z,102175.63
2023-12-18T15:50:36.978Z,102180.94
2023-12-18T15:53:07.087Z,102179.56
2023-12-18T15:55:34.880Z,102180.94
2023-12-18T15:58:02.647Z,102174.09
2023-12-18T16:00:32.658Z,102165.66
2023-12-18T16:03:00.531Z,102165.03
2023-12-18T16:05:28.633Z,102153.81
2023-12-18T16:07:56.549Z,102146.75
2023-12-18T16:10:24.402Z,102140.34
2023-12-18T16:12:52.237Z,102155.97
2023-12-18T16:15:21.570Z,102157.91
2023-12-18T16:17:50.796Z,102170.44
2023-12-18T16:20:18.627Z,102166.34
2023-12-18T16:22:46.710Z,102166.63
2023-12-18T16:25:14.734Z,102166.84
2023-12-18T16:27:42.570Z,102152.97
2023-12-18T16:30:11.310Z,102139.22
2023-12-18T16:32:39.214Z,102140.00
2023-12-18T16:35:10.593Z,102140.91
2023-12-18T16:37:38.568Z,102128.69
2023-12-18T16:40:07.703Z,102132.66
2023-12-18T16:42:35.513Z,102129.78
2023-12-18T16:45:03.334Z,102127.00
2023-12-18T16:47:31.857Z,102124.25
2023-12-18T16:49:59.714Z,102118.97
2023-12-18T16:52:32.950Z,102113.84
2023-12-18T16:55:01.083Z,102104.56
2023-12-18T16:57:29.707Z,102103.06
2023-12-18T17:00:06.465Z,102101.91
2023-12-18T17:02:41.107Z,102098.50
2023-12-18T17:05:09.309Z,102103.38
2023-12-18T17:07:38.852Z,102105.00
2023-12-18T17:10:07.560Z,102108.44
2023-12-18T17:12:35.638Z,102117.72
2023-12-18T17:15:03.531Z,102113.16
2023-12-18T17:17:31.433Z,102113.06
2023-12-18T17:19:59.548Z,102107.97
2023-12-18T17:22:27.298Z,102110.03
2023-12-18T17:24:56.654Z,102110.47
2023-12-18T17:27:24.492Z,102115.13
2023-12-18T17:29:52.327Z,102131.09
2023-12-18T17:32:28.349Z,102129.63
2023-12-18T17:34:57.980Z,102134.03
2023-12-18T17:37:25.881Z,102138.50
2023-12-18T17:39:53.918Z,102137.66
2023-12-18T17:42:23.564Z,102126.44
2023-12-18T17:44:51.468Z,102129.88
2023-12-18T17:47:19.221Z,102122.03
2023-12-18T17:49:47.136Z,102116.19
2023-12-18T17:52:15.134Z,102114.53
2023-12-18T17:54:42.964Z,102118.06
2023-12-18T17:57:10.695Z,102116.97
2023-12-18T17:59:41.873Z,102121.13
2023-12-18T18:02:11.092Z,102117.63
2023-12-18T18:04:38.996Z,102121.03
2023-12-18T18:07:06.788Z,102118.25
2023-12-18T18:09:34.621Z,102113.91
2023-12-18T18:12:02.523Z,102121.03
2023-12-18T18:14:30.249Z,102136.25
2023-12-18T18:16:59.384Z,102128.59
2023-12-18T18:19:27.221Z,102135.88
2023-12-18T18:21:55.405Z,102143.91
2023-12-18T18:24:23.239Z,102136.03
2023-12-18T18:26:51.749Z,102132.44
2023-12-18T18:29:36.245Z,102122.47
2023-12-18T18:32:06.122Z,102128.91
2023-12-18T18:34:34.114Z,102122.72
2023-12-18T18:37:02.065Z,102119.19
2023-12-18T18:39:29.977Z,102106.81
2023-12-18T18:41:57.781Z,102085.91
2023-12-18T18:44:25.333Z,102076.31
2023-12-18T18:46:54.353Z,102087.00
2023-12-18T18:49:24.364Z,102084.31
2023-12-18T18:51:52.277Z,102075.41
2023-12-18T18:54:20.149Z,102073.31
2023-12-18T18:56:48.086Z,102065.63
2023-12-18T18:59:15.933Z,102074.00
2023-12-18T19:01:43.654Z,102082.25
2023-12-18T19:04:12.224Z,102086.78
2023-12-18T19:06:41.507Z,102078.94
2023-12-18T19:09:09.269Z,102073.25
2023-12-18T19:11:37.036Z,102058.69
2023-12-18T19:14:04.791Z,102064.91
2023-12-18T19:16:32.602Z,102075.78
2023-12-18T19:19:00.903Z,102069.13
2023-12-18T19:21:29.044Z,102058.53
2023-12-18T19:23:58.146Z,102049.59
2023-12-18T19:26:25.984Z,102054.41
2023-12-18T19:28:53.814Z,102041.28
2023-12-18T19:31:21.767Z,102052.72
2023-12-18T19:33:49.701Z,102046.31
2023-12-18T19:36:18.176Z,102035.81
2023-12-18T19:38:47.446Z,102037.44
2023-12-18T19:41:21.217Z,102023.53
2023-12-18T19:43:49.040Z,102022.78
2023-12-18T19:46:16.935Z,102034.53
2023-12-18T19:48:45.012Z,102039.72
2023-12-18T19:51:13.150Z,102058.25
2023-12-18T19:53:40.888Z,102058.97
2023-12-18T19:56:10.453Z,102061.28
2023-12-18T19:58:39.566Z,102056.38
2023-12-18T20:01:08.993Z,102065.97
2023-12-18T20:03:36.893Z,102080.03
2023-12-18T20:06:05.874Z,102078.63
2023-12-18T20:08:33.897Z,102086.66
2023-12-18T20:11:01.695Z,102093.00
2023-12-18T20:13:31.004Z,102099.31
2023-12-18T20:16:00.228Z,102117.41
2023-12-18T20:18:28.449Z,102126.16
2023-12-18T20:20:56.333Z,102129.88
2023-12-18T20:23:24.130Z,102133.47
2023-12-18T20:25:51.970Z,102119.34
2023-12-18T20:28:19.737Z,102113.84
2023-12-18T20:30:47.634Z,102102.56
2023-12-18T20:33:16.941Z,102111.16
2023-12-18T20:35:47.558Z,102099.19
2023-12-18T20:38:15.758Z,102105.63
2023-12-18T20:40:43.621Z,102095.88
2023-12-18T20:43:11.453Z,102087.22
2023-12-18T20:45:39.588Z,102083.09
2023-12-18T20:48:07.517Z,102071.38
2023-12-18T20:50:36.770Z,102073.31
2023-12-18T20:53:04.938Z,102060.25
2023-12-18T20:55:32.730Z,102044.91
2023-12-18T20:58:00.725Z,102040.44
2023-12-18T21:00:29.375Z,102042.63
2023-12-18T21:02:57.611Z,102042.50
2023-12-18T21:05:25.841Z,102022.47
2023-12-18T21:07:54.988Z,102022.41
2023-12-18T21:10:22.762Z,102008.53
2023-12-18T21:12:50.829Z,101997.50
2023-12-18T21:15:18.741Z,101988.97
2023-12-18T21:17:46.956Z,101990.38
2023-12-18T21:20:14.907Z,101978.75
2023-12-18T21:22:43.151Z,101987.13
2023-12-18T21:25:13.554Z,101975.63
2023-12-18T21:27:44.054Z,101977.03
2023-12-18T21:30:14.590Z,101972.09
2023-12-18T21:32:43.221Z,101980.81
2023-12-18T21:35:11.485Z,101964.28
2023-12-18T21:37:39.304Z,101957.38
2023-12-18T21:40:08.861Z,101966.59
2023-12-18T21:42:38.932Z,101957.19
2023-12-18T21:45:08.648Z,101945.94
2023-12-18T21:47:37.097Z,101946.19
2023-12-18T21:50:05.373Z,101946.81
2023-12-18T21:52:33.233Z,101939.16
2023-12-18T21:55:01.234Z,101932.69
2023-12-18T21:57:29.148Z,101931.34
2023-12-18T21:59:58.703Z,101915.38
2023-12-18T22:02:26.456Z,101924.88
2023-12-18T22:04:55.226Z,101920.78
2023-12-18T22:07:25.278Z,101907.28
2023-12-18T22:09:53.287Z,101930.91
2023-12-18T22:12:21.485Z,101957.72
2023-12-18T22:14:49.205Z,101961.34
2023-12-18T22:17:19.388Z,101942.97
2023-12-18T22:19:47.294Z,101938.25
2023-12-18T22:22:15.449Z,101932.25
2023-12-18T22:24:43.286Z,101942.91
2023-12-18T22:27:13.849Z,101944.47
2023-12-18T22:29:41.694Z,101951.97
2023-12-18T22:32:09.458Z,101954.38
2023-12-18T22:34:38.831Z,101957.72
2023-12-18T22:37:06.675Z,101957.72
2023-12-18T22:39:34.557Z,101957.63
2023-12-18T22:42:02.389Z,101964.66
2023-12-18T22:44:30.123Z,101959.56
2023-12-18T22:46:58.133Z,101951.06
2023-12-18T22:49:25.948Z,101944.94
2023-12-18T22:51:55.127Z,101951.06
2023-12-18T22:54:22.896Z,101946.72
2023-12-18T22:56:50.717Z,101943.31
2023-12-18T22:59:18.633Z,101938.91
2023-12-18T23:01:46.424Z,101951.13
2023-12-18T23:04:14.358Z,101946.00
2023-12-18T23:06:42.670Z,101933.84
2023-12-18T23:09:14.919Z,101925.50
2023-12-18T23:11:43.005Z,101928.44
2023-12-18T23:14:10.844Z,101931.69
2023-12-18T23:16:39.709Z,101922.03
2023-12-18T23:19:07.584Z,101909.75
2023-12-18T23:21:40.285Z,101905.41
2023-12-18T23:24:09.805Z,101886.41
2023-12-18T23:26:39.076Z,101888.25
2023-12-18T23:29:07.170Z,101876.75
2023-12-18T23:31:37.441Z,101879.13
2023-12-18T23:34:06.144Z,101865.13
2023-12-18T23:36:34.025Z,101858.66
2023-12-18T23:39:01.768Z,101861.34
2023-12-18T23:41:31.070Z,101874.22
2023-12-18T23:44:00.245Z,101872.00
2023-12-18T23:46:29.724Z,101877.91
2023-12-18T23:48:57.899Z,101866.31
2023-12-18T23:51:25.727Z,101868.78
2023-12-18T23:53:53.698Z,101872.34
2023-12-18T23:56:21.431Z,101866.16
2023-12-18T23:58:49.183Z,101861.38
